sensor_id;sensor_type;location;lat;lon;timestamp;pressure;altitude;pressure_sealevel;temperature;humidity
17505;BME280;8870;50.950;11.762;2022-08-04T00:04:52;98197.09;;;22.81;64.90
17505;BME280;8870;50.950;11.762;2022-08-04T00:10:00;98187.25;;;22.68;64.40
17505;BME280;8870;50.950;11.762;2022-08-04T00:15:09;98192.47;;;22.69;65.52
17505;BME280;8870;50.950;11.762;2022-08-04T00:20:40;98191.06;;;22.67;66.69
17505;BME280;8870;50.950;11.762;2022-08-04T00:25:45;98190.16;;;22.61;67.91
17505;BME280;8870;50.950;11.762;2022-08-04T00:30:50;98190.50;;;22.53;70.18
17505;BME280;8870;50.950;11.762;2022-08-04T00:36:00;98194.84;;;22.49;71.81
17505;BME280;8870;50.950;11.762;2022-08-04T00:41:16;98189.03;;;22.45;74.67
17505;BME280;8870;50.950;11.762;2022-08-04T00:46:38;98191.28;;;22.36;76.55
17505;BME280;8870;50.950;11.762;2022-08-04T00:51:57;98196.06;;;22.29;78.69
17505;BME280;8870;50.950;11.762;2022-08-04T00:57:29;98188.06;;;22.27;79.11
17505;BME280;8870;50.950;11.762;2022-08-04T01:02:36;98191.81;;;22.21;83.87
17505;BME280;8870;50.950;11.762;2022-08-04T01:13:36;98187.75;;;22.12;80.06
17505;BME280;8870;50.950;11.762;2022-08-04T01:18:47;98187.31;;;22.03;80.76
17505;BME280;8870;50.950;11.762;2022-08-04T01:24:23;98198.16;;;21.98;84.22
17505;BME280;8870;50.950;11.762;2022-08-04T01:29:38;98190.91;;;21.92;81.88
17505;BME280;8870;50.950;11.762;2022-08-04T01:34:50;98192.47;;;21.88;83.86
17505;BME280;8870;50.950;11.762;2022-08-04T01:39:59;98192.34;;;21.82;86.68
17505;BME280;8870;50.950;11.762;2022-08-04T01:45:10;98189.25;;;21.79;86.71
17505;BME280;8870;50.950;11.762;2022-08-04T01:50:15;98187.94;;;21.69;90.03
17505;BME280;8870;50.950;11.762;2022-08-04T01:55:21;98194.88;;;21.60;91.71
17505;BME280;8870;50.950;11.762;2022-08-04T02:00:55;98196.03;;;21.52;94.19
17505;BME280;8870;50.950;11.762;2022-08-04T02:06:17;98200.81;;;21.45;96.03
17505;BME280;8870;50.950;11.762;2022-08-04T02:11:24;98196.97;;;21.34;96.69
17505;BME280;8870;50.950;11.762;2022-08-04T02:16:40;98191.00;;;21.25;98.68
17505;BME280;8870;50.950;11.762;2022-08-04T02:21:57;98189.09;;;21.14;99.53
17505;BME280;8870;50.950;11.762;2022-08-04T02:27:07;98181.69;;;21.03;100.00
17505;BME280;8870;50.950;11.762;2022-08-04T02:32:21;98179.06;;;20.96;100.00
17505;BME280;8870;50.950;11.762;2022-08-04T02:37:30;98173.69;;;20.89;100.00
17505;BME280;8870;50.950;11.762;2022-08-04T02:42:36;98179.03;;;20.84;100.00
17505;BME280;8870;50.950;11.762;2022-08-04T02:47:45;98173.41;;;20.79;100.00
17505;BME280;8870;50.950;11.762;2022-08-04T02:53:14;98170.75;;;20.72;100.00
17505;BME280;8870;50.950;11.762;2022-08-04T02:58:24;98169.56;;;20.68;100.00
17505;BME280;8870;50.950;11.762;2022-08-04T03:03:42;98175.75;;;20.63;100.00
17505;BME280;8870;50.950;11.762;2022-08-04T03:09:22;98170.94;;;20.59;100.00
17505;BME280;8870;50.950;11.762;2022-08-04T03:14:57;98173.56;;;20.54;100.00
17505;BME280;8870;50.950;11.762;2022-08-04T03:21:04;98174.47;;;20.47;100.00
17505;BME280;8870;50.950;11.762;2022-08-04T03:32:08;98182.41;;;20.37;100.00
17505;BME280;8870;50.950;11.762;2022-08-04T03:37:42;98193.44;;;20.30;100.00
17505;BME280;8870;50.950;11.762;2022-08-04T03:43:23;98188.88;;;20.24;100.00
17505;BME280;8870;50.950;11.762;2022-08-04T03:49:13;98188.13;;;20.17;100.00
17505;BME280;8870;50.950;11.762;2022-08-04T03:54:49;98193.47;;;20.12;100.00
17505;BME280;8870;50.950;11.762;2022-08-04T04:00:06;98188.44;;;20.09;100.00
17505;BME280;8870;50.950;11.762;2022-08-04T04:11:20;98190.44;;;20.01;100.00
17505;BME280;8870;50.950;11.762;2022-08-04T04:16:42;98190.44;;;20.01;100.00
17505;BME280;8870;50.950;11.762;2022-08-04T04:22:14;98190.44;;;20.01;100.00
17505;BME280;8870;50.950;11.762;2022-08-04T04:27:35;98190.81;;;20.05;100.00
17505;BME280;8870;50.950;11.762;2022-08-04T04:32:55;98198.56;;;20.08;100.00
17505;BME280;8870;50.950;11.762;2022-08-04T04:38:24;98198.94;;;20.12;100.00
17505;BME280;8870;50.950;11.762;2022-08-04T04:43:53;98202.88;;;20.16;100.00
17505;BME280;8870;50.950;11.762;2022-08-04T04:49:07;98208.94;;;20.18;100.00
17505;BME280;8870;50.950;11.762;2022-08-04T04:54:23;98217.06;;;20.25;100.00
17505;BME280;8870;50.950;11.762;2022-08-04T04:59:37;98215.91;;;20.32;100.00
17505;BME280;8870;50.950;11.762;2022-08-04T05:10:28;98211.50;;;20.50;100.00
17505;BME280;8870;50.950;11.762;2022-08-04T05:15:42;98210.09;;;20.59;100.00
17505;BME280;8870;50.950;11.762;2022-08-04T05:20:52;98213.94;;;20.70;100.00
17505;BME280;8870;50.950;11.762;2022-08-04T05:26:01;98211.91;;;20.84;100.00
17505;BME280;8870;50.950;11.762;2022-08-04T05:31:24;98209.53;;;21.00;100.00
17505;BME280;8870;50.950;11.762;2022-08-04T05:36:35;98208.88;;;21.16;100.00
17505;BME280;8870;50.950;11.762;2022-08-04T05:41:42;98209.00;;;21.33;100.00
17505;BME280;8870;50.950;11.762;2022-08-04T05:47:00;98212.94;;;21.49;100.00
17505;BME280;8870;50.950;11.762;2022-08-04T05:52:07;98210.97;;;21.68;100.00
17505;BME280;8870;50.950;11.762;2022-08-04T05:57:14;98208.09;;;21.87;100.00
17505;BME280;8870;50.950;11.762;2022-08-04T06:02:23;98209.47;;;22.01;100.00
17505;BME280;8870;50.950;11.762;2022-08-04T06:07:28;98209.09;;;22.22;100.00
17505;BME280;8870;50.950;11.762;2022-08-04T06:12:52;98204.53;;;22.39;100.00
17505;BME280;8870;50.950;11.762;2022-08-04T06:18:03;98198.03;;;22.57;98.68
17505;BME280;8870;50.950;11.762;2022-08-04T06:23:30;98208.41;;;22.84;94.58
17505;BME280;8870;50.950;11.762;2022-08-04T06:28:55;98209.88;;;23.04;93.27
17505;BME280;8870;50.950;11.762;2022-08-04T06:34:04;98201.75;;;23.26;89.28
17505;BME280;8870;50.950;11.762;2022-08-04T06:39:10;98203.22;;;23.51;88.16
17505;BME280;8870;50.950;11.762;2022-08-04T06:44:16;98208.34;;;23.81;82.37
17505;BME280;8870;50.950;11.762;2022-08-04T06:49:30;98207.06;;;24.06;79.87
17505;BME280;8870;50.950;11.762;2022-08-04T06:54:56;98209.13;;;24.38;76.12
17505;BME280;8870;50.950;11.762;2022-08-04T07:00:04;98209.25;;;24.71;69.52
17505;BME280;8870;50.950;11.762;2022-08-04T07:05:13;98207.38;;;25.04;64.14
17505;BME280;8870;50.950;11.762;2022-08-04T07:10:20;98210.44;;;25.40;62.07
17505;BME280;8870;50.950;11.762;2022-08-04T07:15:26;98210.94;;;25.69;60.87
17505;BME280;8870;50.950;11.762;2022-08-04T07:20:34;98217.75;;;25.99;59.26
17505;BME280;8870;50.950;11.762;2022-08-04T07:25:39;98205.47;;;26.23;59.99
17505;BME280;8870;50.950;11.762;2022-08-04T07:31:09;98205.91;;;26.57;57.50
17505;BME280;8870;50.950;11.762;2022-08-04T07:36:37;98201.25;;;26.79;58.20
17505;BME280;8870;50.950;11.762;2022-08-04T07:41:52;98193.00;;;27.04;56.56
17505;BME280;8870;50.950;11.762;2022-08-04T07:46:58;98190.25;;;27.30;56.68
17505;BME280;8870;50.950;11.762;2022-08-04T07:52:14;98203.53;;;27.49;55.20
17505;BME280;8870;50.950;11.762;2022-08-04T07:57:27;98191.66;;;27.59;55.06
17505;BME280;8870;50.950;11.762;2022-08-04T08:02:45;98190.78;;;27.74;54.12
17505;BME280;8870;50.950;11.762;2022-08-04T08:07:55;98188.81;;;27.95;54.05
17505;BME280;8870;50.950;11.762;2022-08-04T08:13:00;98190.72;;;28.15;53.58
17505;BME280;8870;50.950;11.762;2022-08-04T08:18:06;98184.53;;;28.39;52.29
17505;BME280;8870;50.950;11.762;2022-08-04T08:23:13;98183.28;;;28.60;51.65
17505;BME280;8870;50.950;11.762;2022-08-04T08:28:22;98183.13;;;28.91;51.39
17505;BME280;8870;50.950;11.762;2022-08-04T08:33:27;98177.28;;;29.28;48.00
17505;BME280;8870;50.950;11.762;2022-08-04T08:38:41;98171.53;;;29.54;47.13
17505;BME280;8870;50.950;11.762;2022-08-04T08:43:58;98164.53;;;29.86;46.79
17505;BME280;8870;50.950;11.762;2022-08-04T08:55:22;98172.03;;;30.58;43.11
17505;BME280;8870;50.950;11.762;2022-08-04T09:00:41;98166.16;;;30.79;42.10
17505;BME280;8870;50.950;11.762;2022-08-04T09:06:03;98170.44;;;31.09;40.93
17505;BME280;8870;50.950;11.762;2022-08-04T09:11:15;98155.97;;;31.26;40.71
17505;BME280;8870;50.950;11.762;2022-08-04T09:16:30;98159.56;;;31.46;39.85
17505;BME280;8870;50.950;11.762;2022-08-04T09:21:43;98154.16;;;31.69;39.90
17505;BME280;8870;50.950;11.762;2022-08-04T09:26:57;98161.59;;;31.87;38.93
17505;BME280;8870;50.950;11.762;2022-08-04T09:32:09;98150.44;;;32.01;39.57
17505;BME280;8870;50.950;11.762;2022-08-04T09:37:23;98139.63;;;32.27;37.19
17505;BME280;8870;50.950;11.762;2022-08-04T09:42:43;98144.44;;;32.50;37.20
17505;BME280;8870;50.950;11.762;2022-08-04T09:47:55;98144.59;;;32.67;37.56
17505;BME280;8870;50.950;11.762;2022-08-04T09:53:20;98148.50;;;32.80;35.51
17505;BME280;8870;50.950;11.762;2022-08-04T09:58:55;98152.19;;;32.89;35.73
17505;BME280;8870;50.950;11.762;2022-08-04T10:04:08;98139.97;;;32.99;35.76
17505;BME280;8870;50.950;11.762;2022-08-04T10:09:32;98140.22;;;33.12;35.17
17505;BME280;8870;50.950;11.762;2022-08-04T10:14:48;98140.13;;;33.26;34.93
17505;BME280;8870;50.950;11.762;2022-08-04T10:20:02;98126.84;;;33.45;34.67
17505;BME280;8870;50.950;11.762;2022-08-04T10:25:27;98112.94;;;33.63;34.64
17505;BME280;8870;50.950;11.762;2022-08-04T10:31:00;98115.13;;;33.75;34.45
17505;BME280;8870;50.950;11.762;2022-08-04T10:36:09;98121.97;;;34.00;34.60
17505;BME280;8870;50.950;11.762;2022-08-04T10:41:23;98120.72;;;34.24;34.14
17505;BME280;8870;50.950;11.762;2022-08-04T10:46:35;98104.50;;;34.52;34.07
17505;BME280;8870;50.950;11.762;2022-08-04T10:51:47;98101.03;;;34.64;33.63
17505;BME280;8870;50.950;11.762;2022-08-04T10:57:05;98101.22;;;34.68;32.71
17505;BME280;8870;50.950;11.762;2022-08-04T11:02:40;98089.53;;;34.57;32.23
17505;BME280;8870;50.950;11.762;2022-08-04T11:07:51;98097.41;;;34.55;32.67
17505;BME280;8870;50.950;11.762;2022-08-04T11:13:05;98090.19;;;34.54;32.83
17505;BME280;8870;50.950;11.762;2022-08-04T11:18:42;98092.47;;;34.52;32.74
17505;BME280;8870;50.950;11.762;2022-08-04T11:23:58;98090.50;;;34.70;32.37
17505;BME280;8870;50.950;11.762;2022-08-04T11:29:14;98089.34;;;34.80;32.59
17505;BME280;8870;50.950;11.762;2022-08-04T11:34:24;98087.84;;;34.91;32.20
17505;BME280;8870;50.950;11.762;2022-08-04T11:39:34;98084.88;;;35.14;32.03
17505;BME280;8870;50.950;11.762;2022-08-04T11:44:42;98085.47;;;35.46;31.15
17505;BME280;8870;50.950;11.762;2022-08-04T11:49:59;98083.75;;;35.62;31.11
17505;BME280;8870;50.950;11.762;2022-08-04T11:55:08;98079.03;;;35.84;31.21
17505;BME280;8870;50.950;11.762;2022-08-04T12:00:16;98076.56;;;35.91;31.05
17505;BME280;8870;50.950;11.762;2022-08-04T12:05:29;98072.31;;;35.76;30.39
17505;BME280;8870;50.950;11.762;2022-08-04T12:10:44;98076.72;;;35.56;30.04
17505;BME280;8870;50.950;11.762;2022-08-04T12:16:00;98072.66;;;35.45;30.41
17505;BME280;8870;50.950;11.762;2022-08-04T12:21:12;98073.34;;;35.72;30.95
17505;BME280;8870;50.950;11.762;2022-08-04T12:26:26;98062.16;;;36.02;30.18
17505;BME280;8870;50.950;11.762;2022-08-04T12:31:37;98061.53;;;35.96;30.38
17505;BME280;8870;50.950;11.762;2022-08-04T12:36:51;98056.97;;;36.13;29.89
17505;BME280;8870;50.950;11.762;2022-08-04T12:42:02;98049.34;;;36.43;29.76
17505;BME280;8870;50.950;11.762;2022-08-04T12:47:08;98053.00;;;36.77;30.45
17505;BME280;8870;50.950;11.762;2022-08-04T12:52:45;98049.16;;;37.03;28.85
17505;BME280;8870;50.950;11.762;2022-08-04T12:58:11;98054.88;;;36.73;28.90
17505;BME280;8870;50.950;11.762;2022-08-04T13:03:38;98049.88;;;37.12;29.44
17505;BME280;8870;50.950;11.762;2022-08-04T13:08:46;98035.22;;;37.40;28.10
17505;BME280;8870;50.950;11.762;2022-08-04T13:13:53;98025.31;;;37.09;28.23
17505;BME280;8870;50.950;11.762;2022-08-04T13:19:19;98019.44;;;37.02;28.52
17505;BME280;8870;50.950;11.762;2022-08-04T13:24:28;98016.16;;;37.12;27.35
17505;BME280;8870;50.950;11.762;2022-08-04T13:29:56;98015.72;;;37.10;28.33
17505;BME280;8870;50.950;11.762;2022-08-04T13:35:07;98019.25;;;37.32;28.40
17505;BME280;8870;50.950;11.762;2022-08-04T13:40:20;98016.19;;;37.25;28.44
17505;BME280;8870;50.950;11.762;2022-08-04T13:45:31;98011.72;;;37.11;28.88
17505;BME280;8870;50.950;11.762;2022-08-04T13:50:38;98004.34;;;37.07;29.01
17505;BME280;8870;50.950;11.762;2022-08-04T13:55:56;98009.22;;;37.56;28.38
17505;BME280;8870;50.950;11.762;2022-08-04T14:01:06;97993.28;;;37.97;28.35
17505;BME280;8870;50.950;11.762;2022-08-04T14:06:15;97990.81;;;38.49;27.76
17505;BME280;8870;50.950;11.762;2022-08-04T14:11:32;97987.47;;;39.04;26.95
17505;BME280;8870;50.950;11.762;2022-08-04T14:17:00;97977.94;;;39.24;26.91
17505;BME280;8870;50.950;11.762;2022-08-04T14:22:06;97982.47;;;38.97;27.37
17505;BME280;8870;50.950;11.762;2022-08-04T14:27:18;97976.94;;;38.56;27.39
17505;BME280;8870;50.950;11.762;2022-08-04T14:32:23;97979.66;;;38.12;27.78
17505;BME280;8870;50.950;11.762;2022-08-04T14:37:29;97975.28;;;38.55;27.32
17505;BME280;8870;50.950;11.762;2022-08-04T14:42:52;97966.91;;;38.87;27.23
17505;BME280;8870;50.950;11.762;2022-08-04T14:47:58;97962.56;;;39.54;27.02
17505;BME280;8870;50.950;11.762;2022-08-04T14:53:05;97960.72;;;40.13;26.66
17505;BME280;8870;50.950;11.762;2022-08-04T14:58:19;97955.88;;;40.73;25.69
17505;BME280;8870;50.950;11.762;2022-08-04T15:03:40;97957.13;;;41.18;24.75
17505;BME280;8870;50.950;11.762;2022-08-04T15:08:54;97955.31;;;41.06;25.07
17505;BME280;8870;50.950;11.762;2022-08-04T15:14:03;97955.56;;;41.21;24.71
17505;BME280;8870;50.950;11.762;2022-08-04T15:19:30;97946.56;;;40.69;24.71
17505;BME280;8870;50.950;11.762;2022-08-04T15:24:35;97944.94;;;40.28;25.86
17505;BME280;8870;50.950;11.762;2022-08-04T15:29:45;97947.81;;;39.76;25.91
17505;BME280;8870;50.950;11.762;2022-08-04T15:35:04;97931.94;;;39.52;26.10
17505;BME280;8870;50.950;11.762;2022-08-04T15:40:13;97928.69;;;39.50;26.48
17505;BME280;8870;50.950;11.762;2022-08-04T15:45:47;97914.09;;;40.00;25.55
17505;BME280;8870;50.950;11.762;2022-08-04T15:51:12;97922.06;;;40.76;25.07
17505;BME280;8870;50.950;11.762;2022-08-04T15:56:44;97927.47;;;40.85;24.34
17505;BME280;8870;50.950;11.762;2022-08-04T16:07:57;97910.34;;;40.74;24.23
17505;BME280;8870;50.950;11.762;2022-08-04T16:13:07;97904.94;;;40.46;25.28
17505;BME280;8870;50.950;11.762;2022-08-04T16:18:36;97903.25;;;40.41;25.02
17505;BME280;8870;50.950;11.762;2022-08-04T16:24:08;97910.34;;;40.74;24.43
17505;BME280;8870;50.950;11.762;2022-08-04T16:29:30;97904.50;;;40.87;23.70
17505;BME280;8870;50.950;11.762;2022-08-04T16:34:37;97904.50;;;40.87;24.38
17505;BME280;8870;50.950;11.762;2022-08-04T16:45:17;97894.78;;;41.07;23.63
17505;BME280;8870;50.950;11.762;2022-08-04T16:50:22;97894.19;;;41.21;23.73
17505;BME280;8870;50.950;11.762;2022-08-04T16:55:28;97895.03;;;41.22;23.37
17505;BME280;8870;50.950;11.762;2022-08-04T17:00:36;97893.44;;;41.24;23.73
17505;BME280;8870;50.950;11.762;2022-08-04T17:05:41;97885.94;;;41.09;23.36
17505;BME280;8870;50.950;11.762;2022-08-04T17:10:47;97882.75;;;41.10;23.75
17505;BME280;8870;50.950;11.762;2022-08-04T17:15:57;97880.88;;;40.98;23.78
17505;BME280;8870;50.950;11.762;2022-08-04T17:21:04;97881.16;;;40.47;23.53
17505;BME280;8870;50.950;11.762;2022-08-04T17:26:13;97879.97;;;39.69;24.87
17505;BME280;8870;50.950;11.762;2022-08-04T17:31:23;97870.53;;;39.26;24.60
17505;BME280;8870;50.950;11.762;2022-08-04T17:36:30;97865.84;;;38.82;25.39
17505;BME280;8870;50.950;11.762;2022-08-04T17:41:35;97871.00;;;38.64;25.43
17505;BME280;8870;50.950;11.762;2022-08-04T17:46:52;97874.97;;;38.47;25.99
17505;BME280;8870;50.950;11.762;2022-08-04T17:51:58;97862.00;;;38.58;26.28
17505;BME280;8870;50.950;11.762;2022-08-04T17:57:16;97871.16;;;38.71;26.28
17505;BME280;8870;50.950;11.762;2022-08-04T18:02:26;97873.00;;;38.79;26.56
17505;BME280;8870;50.950;11.762;2022-08-04T18:07:37;97879.06;;;38.65;26.80
17505;BME280;8870;50.950;11.762;2022-08-04T18:13:06;97869.34;;;38.47;26.94
17505;BME280;8870;50.950;11.762;2022-08-04T18:18:19;97868.97;;;38.20;27.03
17505;BME280;8870;50.950;11.762;2022-08-04T18:23:25;97866.13;;;37.63;27.37
17505;BME280;8870;50.950;11.762;2022-08-04T18:28:33;97867.59;;;36.95;28.18
17505;BME280;8870;50.950;11.762;2022-08-04T18:33:40;97869.19;;;36.37;28.82
17505;BME280;8870;50.950;11.762;2022-08-04T18:39:00;97866.31;;;35.91;29.28
17505;BME280;8870;50.950;11.762;2022-08-04T18:44:16;97872.28;;;35.47;30.14
17505;BME280;8870;50.950;11.762;2022-08-04T18:49:31;97873.22;;;34.92;30.53
17505;BME280;8870;50.950;11.762;2022-08-04T18:54:56;97876.81;;;34.36;31.26
17505;BME280;8870;50.950;11.762;2022-08-04T19:00:04;97874.25;;;33.95;31.76
17505;BME280;8870;50.950;11.762;2022-08-04T19:05:12;97875.66;;;33.58;32.34
17505;BME280;8870;50.950;11.762;2022-08-04T19:10:20;97870.66;;;33.28;32.58
17505;BME280;8870;50.950;11.762;2022-08-04T19:15:27;97869.63;;;32.98;33.03
17505;BME280;8870;50.950;11.762;2022-08-04T19:20:38;97880.34;;;32.73;34.34
17505;BME280;8870;50.950;11.762;2022-08-04T19:25:44;97882.03;;;32.51;34.20
17505;BME280;8870;50.950;11.762;2022-08-04T19:31:06;97892.75;;;32.35;34.65
17505;BME280;8870;50.950;11.762;2022-08-04T19:36:21;97897.06;;;32.19;35.09
17505;BME280;8870;50.950;11.762;2022-08-04T19:41:29;97888.88;;;32.00;35.69
17505;BME280;8870;50.950;11.762;2022-08-04T19:46:57;97899.38;;;31.80;35.92
17505;BME280;8870;50.950;11.762;2022-08-04T19:52:24;97905.19;;;31.56;37.29
17505;BME280;8870;50.950;11.762;2022-08-04T19:57:35;97894.69;;;31.39;37.48
17505;BME280;8870;50.950;11.762;2022-08-04T20:02:47;97903.06;;;31.25;37.19
17505;BME280;8870;50.950;11.762;2022-08-04T20:07:55;97906.34;;;31.13;37.36
17505;BME280;8870;50.950;11.762;2022-08-04T20:13:00;97905.72;;;31.02;37.27
17505;BME280;8870;50.950;11.762;2022-08-04T20:18:11;97897.06;;;30.89;37.91
17505;BME280;8870;50.950;11.762;2022-08-04T20:23:38;97897.75;;;30.81;37.53
17505;BME280;8870;50.950;11.762;2022-08-04T20:28:50;97897.16;;;30.70;37.76
17505;BME280;8870;50.950;11.762;2022-08-04T20:33:56;97900.22;;;30.55;38.22
17505;BME280;8870;50.950;11.762;2022-08-04T20:39:04;97897.06;;;30.42;38.83
17505;BME280;8870;50.950;11.762;2022-08-04T20:44:10;97891.06;;;30.21;39.45
17505;BME280;8870;50.950;11.762;2022-08-04T20:49:24;97894.69;;;30.03;39.61
17505;BME280;8870;50.950;11.762;2022-08-04T20:54:40;97897.66;;;29.87;40.26
17505;BME280;8870;50.950;11.762;2022-08-04T20:59:50;97892.56;;;29.75;40.25
17505;BME280;8870;50.950;11.762;2022-08-04T21:05:01;97892.41;;;29.66;39.78
17505;BME280;8870;50.950;11.762;2022-08-04T21:10:12;97890.53;;;29.62;40.07
17505;BME280;8870;50.950;11.762;2022-08-04T21:15:23;97891.13;;;29.59;40.23
17505;BME280;8870;50.950;11.762;2022-08-04T21:20:48;97893.63;;;29.41;41.08
17505;BME280;8870;50.950;11.762;2022-08-04T21:25:59;97898.53;;;29.25;41.68
17505;BME280;8870;50.950;11.762;2022-08-04T21:31:04;97893.47;;;29.08;41.89
17505;BME280;8870;50.950;11.762;2022-08-04T21:36:13;97891.41;;;28.95;41.66
17505;BME280;8870;50.950;11.762;2022-08-04T21:41:23;97888.75;;;28.84;41.41
17505;BME280;8870;50.950;11.762;2022-08-04T21:46:28;97894.09;;;28.75;42.53
17505;BME280;8870;50.950;11.762;2022-08-04T21:51:35;97894.19;;;28.36;44.68
17505;BME280;8870;50.950;11.762;2022-08-04T21:57:04;97897.19;;;28.10;44.59
17505;BME280;8870;50.950;11.762;2022-08-04T22:02:10;97904.47;;;27.95;44.67
17505;BME280;8870;50.950;11.762;2022-08-04T22:07:16;97900.09;;;27.84;44.98
17505;BME280;8870;50.950;11.762;2022-08-04T22:12:26;97912.03;;;27.79;44.48
17505;BME280;8870;50.950;11.762;2022-08-04T22:23:25;97920.13;;;27.71;44.20
17505;BME280;8870;50.950;11.762;2022-08-04T22:28:56;97911.56;;;27.67;44.27
17505;BME280;8870;50.950;11.762;2022-08-04T22:34:06;97907.44;;;27.64;44.17
17505;BME280;8870;50.950;11.762;2022-08-04T22:39:13;97910.50;;;27.63;44.25
17505;BME280;8870;50.950;11.762;2022-08-04T22:44:21;97918.50;;;27.64;43.88
17505;BME280;8870;50.950;11.762;2022-08-04T22:49:35;97924.59;;;27.01;47.27
17505;BME280;8870;50.950;11.762;2022-08-04T22:54:40;97932.34;;;26.88;46.90
17505;BME280;8870;50.950;11.762;2022-08-04T22:59:48;97921.59;;;26.66;47.97
17505;BME280;8870;50.950;11.762;2022-08-04T23:04:55;97937.09;;;26.52;49.16
17505;BME280;8870;50.950;11.762;2022-08-04T23:10:00;97934.56;;;26.04;54.58
17505;BME280;8870;50.950;11.762;2022-08-04T23:15:10;97935.31;;;25.52;61.42
17505;BME280;8870;50.950;11.762;2022-08-04T23:20:18;97943.41;;;25.16;65.81
17505;BME280;8870;50.950;11.762;2022-08-04T23:25:33;97942.28;;;25.07;64.73
17505;BME280;8870;50.950;11.762;2022-08-04T23:31:01;97943.34;;;25.06;64.98
17505;BME280;8870;50.950;11.762;2022-08-04T23:36:11;97943.31;;;25.01;66.68
17505;BME280;8870;50.950;11.762;2022-08-04T23:41:16;97942.22;;;24.97;68.09
17505;BME280;8870;50.950;11.762;2022-08-04T23:46:24;97945.22;;;24.90;69.79
17505;BME280;8870;50.950;11.762;2022-08-04T23:51:28;97942.13;;;24.81;71.73
17505;BME280;8870;50.950;11.762;2022-08-04T23:56:36;97939.31;;;24.71;73.59
